Airfield :
LOGIN :

Register | Disclaimer

   EN    FR    IT 

 










Legend :    VFR   Marginal VFR   IFR   Intensive IFR   Very Intensive IFR
Visi :
Ceiling :
>= 8 km
>= 3000ft
5 to 8 km
1000 to 3000 ft
1500m to 5 km
500 to 1000 ft
800 to 1500m
200 to 500 ft
< 800m
< 200 ft
Symbols :   Thunderstorms  Fog  Heavy snow  Heavy precipitations  Wind > 20 kt
SIGMETs :     Misc.  Thunderstorms  Icing  Turbulence  Mountain Waves  Volcanic Ashes






- Airport Elevation : 2776 ft
- IATA code : VLL


LEVD - Valladolid

CURRENT METAR :
  • 272200Z AUTO 06008KT CAVOK 06/04 Q1008

EXPIRED METARs :
  • 272130Z AUTO 08009KT CAVOK 07/05 Q1008
  • 272100Z AUTO 08010KT CAVOK 08/05 Q1008
  • 272030Z 08011KT CAVOK 08/05 Q1008
  • 272000Z 08009KT CAVOK 09/06 Q1008
  • 271930Z 08008KT CAVOK 09/06 Q1008

TAF TAF LEVD
Valid from the 27 at 21:00 until the 28 at 21:00 UTC


272000Z 2721/2821 08011KT 9999 FEW010 SCT030 TX14/2815Z TN06/2806Z
TEMPO 2801/2812 3500 BR BCFG BKN007
PROB30
TEMPO 2803/2811 0300 FG VV001



MET'MAP, your aeronautical weather chart ! - Copyright ORBIFLY December 2007 - Disclaimer

ORBIFLY MET'MAP TEAM :

Programming & Development : Alexandra Zaïnal
Concept & original design : Baudouin d'Aumeries
Assistance for programming : Marc-Olivier Méhu
Technical & hardware support : Manuel Goepfert

Contact : metmap@orbifly.com




SOURCES & CREDITS :

   NOAA